Time;durP1;ratioP1;P1;durP2;ratioP2;P2;SDS_P1;SDS_P2;PMS_P1;PMS_P2;Temp;Humidity;BMP_temperature;BMP_pressure;BME280_temperature;BME280_humidity;BME280_pressure;Samples;Min_cycle;Max_cycle;Signal;HPM_P1;HPM_P2
2022/11/22 00:01:13;;;;;;;;;;;6.00;99.90;;;;;;1974937;73;20432;-76
2022/11/22 00:03:39;;;;;;;;;;;5.90;99.90;;;;;;1975224;73;20139;-76
2022/11/22 00:06:06;;;;;;;;;;;6.10;99.90;;;;;;1975331;73;20361;-76
2022/11/22 00:08:33;;;;;;;;;;;6.20;99.90;;;;;;1974866;73;20110;-75
2022/11/22 00:11:00;;;;;;;;;;;6.30;99.90;;;;;;1974167;73;20185;-76
2022/11/22 00:13:26;;;;;;;;;;;6.30;99.90;;;;;;1973991;73;20335;-76
2022/11/22 00:15:58;;;;;;;;;;;6.30;99.90;;;;;;1973960;73;20156;-76
2022/11/22 00:18:24;;;;;;;;;;;6.10;99.90;;;;;;1974283;73;20141;-78
2022/11/22 00:20:51;;;;;;;;;;;6.10;99.90;;;;;;1975002;73;20102;-76
2022/11/22 00:23:18;;;;;;;;;;;6.30;99.90;;;;;;1974931;73;20141;-76
2022/11/22 00:25:44;;;;;;;;;;;6.10;99.90;;;;;;1975089;73;20130;-77
2022/11/22 00:28:11;;;;;;;;;;;6.20;99.90;;;;;;1974744;73;20139;-77
2022/11/22 00:30:38;;;;;;;;;;;6.30;99.90;;;;;;1974588;73;20119;-77
2022/11/22 00:33:04;;;;;;;;;;;6.20;99.90;;;;;;1974484;73;20103;-77
2022/11/22 00:35:31;;;;;;;;;;;6.20;99.90;;;;;;1974443;73;20291;-77
2022/11/22 00:37:58;;;;;;;;;;;6.30;99.90;;;;;;1974198;73;20184;-76
2022/11/22 00:40:25;;;;;;;;;;;6.40;99.90;;;;;;1974394;73;20349;-76
2022/11/22 00:42:51;;;;;;;;;;;6.20;99.90;;;;;;1974328;73;20140;-77
2022/11/22 00:45:18;;;;;;;;;;;6.00;99.90;;;;;;1974365;73;20314;-78
2022/11/22 00:47:45;;;;;;;;;;;6.10;99.90;;;;;;1974317;73;20106;-78
2022/11/22 00:50:11;;;;;;;;;;;6.00;99.90;;;;;;1973887;73;20337;-76
2022/11/22 00:52:38;;;;;;;;;;;6.00;99.90;;;;;;1973909;73;20114;-76
2022/11/22 00:55:05;;;;;;;;;;;6.10;99.90;;;;;;1974059;73;20329;-76
2022/11/22 00:57:33;;;;;;;;;;;6.20;99.90;;;;;;1973794;73;20106;-75
2022/11/22 01:00:00;;;;;;;;;;;6.20;99.90;;;;;;1973786;73;20141;-76
2022/11/22 01:02:27;;;;;;;;;;;6.10;99.90;;;;;;1973801;73;20126;-76
2022/11/22 01:04:53;;;;;;;;;;;6.40;99.90;;;;;;1973778;73;20110;-76
2022/11/22 01:07:20;;;;;;;;;;;6.40;99.90;;;;;;1974000;73;20194;-77
2022/11/22 01:09:47;;;;;;;;;;;6.30;99.90;;;;;;1974025;73;20114;-76
2022/11/22 01:12:13;;;;;;;;;;;6.40;99.90;;;;;;1973921;73;20114;-76
2022/11/22 01:14:40;;;;;;;;;;;6.40;99.90;;;;;;1973979;73;20110;-76
2022/11/22 01:17:07;;;;;;;;;;;6.30;99.90;;;;;;1973936;73;20191;-76
2022/11/22 01:19:33;;;;;;;;;;;6.40;99.90;;;;;;1973876;73;20194;-76
2022/11/22 01:22:00;;;;;;;;;;;6.40;99.90;;;;;;1973917;73;20114;-76
2022/11/22 01:24:27;;;;;;;;;;;6.40;99.90;;;;;;1973914;73;20148;-76
2022/11/22 01:26:54;;;;;;;;;;;6.30;99.90;;;;;;1973891;73;20106;-76
2022/11/22 01:29:20;;;;;;;;;;;6.20;99.90;;;;;;1973875;73;20168;-77
2022/11/22 01:31:47;;;;;;;;;;;6.20;99.90;;;;;;1973888;73;20336;-76
2022/11/22 01:34:14;;;;;;;;;;;6.40;99.90;;;;;;1947001;73;20114;-76
2022/11/22 01:36:40;;;;;;;;;;;6.30;99.90;;;;;;1973879;73;20329;-77
2022/11/22 01:39:07;;;;;;;;;;;6.30;99.90;;;;;;1973917;73;20114;-77
2022/11/22 01:41:34;;;;;;;;;;;6.20;99.90;;;;;;1973907;73;20313;-77
2022/11/22 01:44:17;;;;;;;;;;;6.40;99.90;;;;;;1973893;73;20099;-77
2022/11/22 01:46:44;;;;;;;;;;;6.40;99.90;;;;;;1973899;73;20140;-77
2022/11/22 01:49:12;;;;;;;;;;;6.50;99.90;;;;;;1973820;73;20144;-78
2022/11/22 01:51:40;;;;;;;;;;;6.40;99.90;;;;;;1973865;73;20114;-78
2022/11/22 01:54:10;;;;;;;;;;;6.50;99.90;;;;;;1973966;73;20254;-79
2022/11/22 01:56:37;;;;;;;;;;;6.40;99.90;;;;;;1973797;73;20110;-77
2022/11/22 01:59:05;;;;;;;;;;;6.20;99.90;;;;;;1973887;73;20098;-78
2022/11/22 02:01:32;;;;;;;;;;;6.30;99.90;;;;;;1973700;73;20152;-78
2022/11/22 02:03:59;;;;;;;;;;;6.50;99.90;;;;;;1973785;73;20352;-79
2022/11/22 02:06:27;;;;;;;;;;;6.40;99.90;;;;;;1973836;73;20247;-78
2022/11/22 02:08:58;;;;;;;;;;;6.40;99.90;;;;;;1973909;73;20095;-78
2022/11/22 02:11:25;;;;;;;;;;;6.50;99.90;;;;;;1973890;73;20110;-79
2022/11/22 02:13:53;;;;;;;;;;;6.50;99.90;;;;;;1974005;73;20126;-78
2022/11/22 02:16:20;;;;;;;;;;;6.40;99.90;;;;;;1973956;73;20206;-79
2022/11/22 02:18:47;;;;;;;;;;;6.40;99.90;;;;;;1974007;73;20126;-78
2022/11/22 02:21:14;;;;;;;;;;;6.50;99.90;;;;;;1974028;73;20133;-78
2022/11/22 02:23:51;;;;;;;;;;;6.50;99.90;;;;;;1973951;73;20122;-78
2022/11/22 02:26:17;;;;;;;;;;;6.60;99.90;;;;;;1973843;73;20114;-78
2022/11/22 02:28:44;;;;;;;;;;;6.50;99.90;;;;;;1974012;73;20338;-79
2022/11/22 02:31:12;;;;;;;;;;;6.40;99.90;;;;;;1974072;73;20160;-79
2022/11/22 02:33:39;;;;;;;;;;;6.40;99.90;;;;;;1969866;73;20302;-78
2022/11/22 02:36:06;;;;;;;;;;;6.60;99.90;;;;;;1974041;73;20320;-78
2022/11/22 02:38:33;;;;;;;;;;;6.70;99.90;;;;;;1974023;73;20359;-78
2022/11/22 02:41:01;;;;;;;;;;;6.70;99.90;;;;;;1974020;73;20103;-78
2022/11/22 02:43:29;;;;;;;;;;;6.60;99.90;;;;;;1973930;73;20110;-78
2022/11/22 02:45:58;;;;;;;;;;;6.70;99.90;;;;;;1973309;73;20372;-77
2022/11/22 02:48:26;;;;;;;;;;;6.60;99.90;;;;;;1973273;73;20110;-78
2022/11/22 02:50:53;;;;;;;;;;;6.60;99.90;;;;;;1973893;73;20173;-78
2022/11/22 02:53:20;;;;;;;;;;;6.70;99.90;;;;;;1973942;73;20110;-79
2022/11/22 02:55:46;;;;;;;;;;;6.60;99.90;;;;;;1973926;73;20189;-79
2022/11/22 02:58:13;;;;;;;;;;;6.60;99.90;;;;;;1973919;73;20122;-79
2022/11/22 03:00:40;;;;;;;;;;;6.70;99.90;;;;;;1973986;73;20106;-78
2022/11/22 03:03:06;;;;;;;;;;;6.70;99.90;;;;;;1974077;73;20157;-77
2022/11/22 03:05:33;;;;;;;;;;;6.60;99.90;;;;;;1973921;73;20114;-78
2022/11/22 03:08:00;;;;;;;;;;;6.70;99.90;;;;;;1973925;73;20114;-78
2022/11/22 03:10:26;;;;;;;;;;;6.70;99.90;;;;;;1973927;73;20161;-78
2022/11/22 03:12:53;;;;;;;;;;;6.60;99.90;;;;;;1973990;73;20140;-78
2022/11/22 03:15:20;;;;;;;;;;;6.40;99.90;;;;;;1973980;73;20106;-77
2022/11/22 03:17:46;;;;;;;;;;;6.50;99.90;;;;;;1973954;73;20187;-79
2022/11/22 03:20:13;;;;;;;;;;;6.50;99.90;;;;;;1973961;73;20162;-78
2022/11/22 03:22:40;;;;;;;;;;;6.50;99.90;;;;;;1973915;73;20110;-77
2022/11/22 03:25:07;;;;;;;;;;;6.40;99.90;;;;;;1973957;73;20203;-78
2022/11/22 03:27:33;;;;;;;;;;;6.40;99.90;;;;;;1973920;73;20164;-78
2022/11/22 03:30:00;;;;;;;;;;;6.40;99.90;;;;;;1973991;73;20152;-79
2022/11/22 03:32:27;;;;;;;;;;;6.30;99.90;;;;;;1973982;73;20256;-78
2022/11/22 03:34:53;;;;;;;;;;;6.40;99.90;;;;;;1973954;73;20160;-77
2022/11/22 03:37:20;;;;;;;;;;;6.40;99.90;;;;;;1974046;73;20118;-77
2022/11/22 03:39:47;;;;;;;;;;;6.40;99.90;;;;;;1974049;73;20161;-78
2022/11/22 03:42:13;;;;;;;;;;;6.40;99.90;;;;;;1973925;73;20137;-78
2022/11/22 03:44:40;;;;;;;;;;;6.30;99.90;;;;;;1973886;73;20156;-78
2022/11/22 03:47:07;;;;;;;;;;;6.30;99.90;;;;;;1974096;73;20161;-78
2022/11/22 03:49:33;;;;;;;;;;;6.40;99.90;;;;;;1973980;73;20103;-77
2022/11/22 03:52:00;;;;;;;;;;;6.40;99.90;;;;;;1973966;73;20095;-78
2022/11/22 03:54:27;;;;;;;;;;;6.40;99.90;;;;;;1973983;73;20138;-78
2022/11/22 03:56:54;;;;;;;;;;;6.40;99.90;;;;;;1973969;73;20111;-78
2022/11/22 03:59:20;;;;;;;;;;;6.40;99.90;;;;;;1974034;73;20103;-78
2022/11/22 04:01:48;;;;;;;;;;;6.40;99.90;;;;;;1973925;73;20180;-79
2022/11/22 04:04:15;;;;;;;;;;;6.40;99.90;;;;;;1973927;73;20110;-78
2022/11/22 04:06:41;;;;;;;;;;;6.40;99.90;;;;;;1973981;73;20106;-78
2022/11/22 04:09:08;;;;;;;;;;;6.50;99.90;;;;;;1974069;73;20114;-79
2022/11/22 04:11:35;;;;;;;;;;;6.40;99.90;;;;;;1974057;73;20114;-79
2022/11/22 04:16:47;;;;;;;;;;;6.20;99.90;;;;;;1973885;73;20202;-78
2022/11/22 04:19:13;;;;;;;;;;;6.30;99.90;;;;;;1974142;73;20110;-78
2022/11/22 04:21:40;;;;;;;;;;;6.30;99.90;;;;;;1974153;73;20163;-79
2022/11/22 04:26:52;;;;;;;;;;;6.10;99.90;;;;;;1973905;73;20352;-78
2022/11/22 04:29:19;;;;;;;;;;;6.10;99.90;;;;;;1974038;73;20147;-79
2022/11/22 04:34:31;;;;;;;;;;;5.90;99.90;;;;;;1973961;73;20110;-78
2022/11/22 04:36:58;;;;;;;;;;;5.90;99.90;;;;;;1973941;73;20148;-78
2022/11/22 04:39:25;;;;;;;;;;;5.90;99.90;;;;;;1974078;73;20102;-78
2022/11/22 04:47:06;;;;;;;;;;;5.70;99.90;;;;;;1973970;73;20114;-79
2022/11/22 04:49:33;;;;;;;;;;;5.60;99.90;;;;;;1973961;73;20148;-78
2022/11/22 04:54:44;;;;;;;;;;;5.50;99.90;;;;;;1973988;73;20114;-78
2022/11/22 04:57:11;;;;;;;;;;;5.50;99.90;;;;;;1973824;73;20118;-79
2022/11/22 04:59:37;;;;;;;;;;;5.40;99.90;;;;;;1973869;73;20183;-79
2022/11/22 05:02:04;;;;;;;;;;;5.40;99.90;;;;;;1973947;73;20110;-78
2022/11/22 05:04:31;;;;;;;;;;;5.40;99.90;;;;;;1973969;73;20110;-79
2022/11/22 05:06:57;;;;;;;;;;;5.50;99.90;;;;;;1973988;73;20144;-79
2022/11/22 05:09:24;;;;;;;;;;;5.40;99.90;;;;;;1974257;73;20177;-79
2022/11/22 05:11:52;;;;;;;;;;;5.40;99.90;;;;;;1974312;73;20106;-80
2022/11/22 05:14:19;;;;;;;;;;;5.40;99.90;;;;;;1974208;73;20123;-79
2022/11/22 05:16:46;;;;;;;;;;;5.30;99.90;;;;;;1974152;73;20147;-79
2022/11/22 05:19:14;;;;;;;;;;;5.30;99.90;;;;;;1974364;73;20142;-79
2022/11/22 05:21:40;;;;;;;;;;;5.30;99.90;;;;;;1974326;73;20153;-80
2022/11/22 05:24:08;;;;;;;;;;;5.30;99.90;;;;;;1974200;73;20413;-79
2022/11/22 05:26:35;;;;;;;;;;;5.30;99.90;;;;;;1974220;73;20103;-80
2022/11/22 05:29:05;;;;;;;;;;;5.30;99.90;;;;;;1974167;73;20107;-79
2022/11/22 05:31:32;;;;;;;;;;;5.10;99.90;;;;;;1947660;73;20151;-80
2022/11/22 05:33:59;;;;;;;;;;;5.20;99.90;;;;;;1974317;73;20110;-79
2022/11/22 05:36:25;;;;;;;;;;;5.10;99.90;;;;;;1973946;73;20306;-78
2022/11/22 05:38:53;;;;;;;;;;;5.10;99.90;;;;;;1974016;73;20122;-79
2022/11/22 05:41:19;;;;;;;;;;;5.10;99.90;;;;;;1973987;73;20110;-79
2022/11/22 05:43:46;;;;;;;;;;;5.10;99.90;;;;;;1974039;73;20406;-79
2022/11/22 05:46:20;;;;;;;;;;;5.00;99.90;;;;;;1973921;73;20164;-78
2022/11/22 05:48:46;;;;;;;;;;;5.10;99.90;;;;;;1973930;73;20158;-77
2022/11/22 05:51:14;;;;;;;;;;;5.00;99.90;;;;;;1974036;73;20135;-79
2022/11/22 05:53:41;;;;;;;;;;;5.10;99.90;;;;;;1973955;73;20114;-79
2022/11/22 05:56:08;;;;;;;;;;;5.10;99.90;;;;;;1973903;73;20172;-79
2022/11/22 05:58:35;;;;;;;;;;;5.10;99.90;;;;;;1973935;73;20118;-79
2022/11/22 06:01:06;;;;;;;;;;;5.10;99.90;;;;;;1973929;73;20149;-78
2022/11/22 06:03:34;;;;;;;;;;;5.10;99.90;;;;;;1973984;73;20141;-80
2022/11/22 06:06:00;;;;;;;;;;;5.10;99.90;;;;;;1974449;73;20170;-76
2022/11/22 06:08:30;;;;;;;;;;;5.20;99.90;;;;;;1973943;73;20161;-76
2022/11/22 06:11:01;;;;;;;;;;;5.20;99.90;;;;;;1973980;73;20187;-76
2022/11/22 06:13:27;;;;;;;;;;;5.20;99.90;;;;;;1973341;73;20417;-75
2022/11/22 06:15:55;;;;;;;;;;;5.20;99.90;;;;;;1973969;73;20171;-76
2022/11/22 06:18:22;;;;;;;;;;;5.20;99.90;;;;;;1973571;73;20311;-76
2022/11/22 06:20:49;;;;;;;;;;;5.20;99.90;;;;;;1974002;73;20099;-76
2022/11/22 06:23:16;;;;;;;;;;;5.30;99.90;;;;;;1974188;73;20363;-76
2022/11/22 06:25:42;;;;;;;;;;;5.40;99.90;;;;;;1974263;73;20137;-75
2022/11/22 06:28:09;;;;;;;;;;;5.20;99.90;;;;;;1974151;73;20366;-75
2022/11/22 06:30:37;;;;;;;;;;;5.30;99.90;;;;;;1974148;73;20095;-75
2022/11/22 06:33:04;;;;;;;;;;;5.40;99.90;;;;;;1974137;73;20388;-76
2022/11/22 06:35:31;;;;;;;;;;;5.30;99.90;;;;;;1974129;73;20168;-77
2022/11/22 06:37:59;;;;;;;;;;;5.30;99.90;;;;;;1974126;73;20410;-77
2022/11/22 06:40:29;;;;;;;;;;;5.30;99.90;;;;;;1974120;73;20131;-82
2022/11/22 06:42:57;;;;;;;;;;;5.30;99.90;;;;;;1974098;73;20122;-80
2022/11/22 06:45:24;;;;;;;;;;;5.30;99.90;;;;;;1974043;73;20114;-80
2022/11/22 06:47:50;;;;;;;;;;;5.20;99.90;;;;;;1974361;73;20110;-80
2022/11/22 06:50:17;;;;;;;;;;;5.20;99.90;;;;;;1974330;73;20186;-78
2022/11/22 06:52:45;;;;;;;;;;;5.20;99.90;;;;;;1974351;73;20161;-78
2022/11/22 06:55:12;;;;;;;;;;;5.30;99.90;;;;;;1973695;73;20210;-78
2022/11/22 06:57:39;;;;;;;;;;;5.30;99.90;;;;;;1974426;73;20184;-77
2022/11/22 07:00:07;;;;;;;;;;;5.30;99.90;;;;;;1974526;73;20332;-77
2022/11/22 07:02:34;;;;;;;;;;;5.40;99.90;;;;;;1974404;73;20107;-77
2022/11/22 07:05:00;;;;;;;;;;;5.40;99.90;;;;;;1974474;73;20114;-75
2022/11/22 07:07:27;;;;;;;;;;;5.40;99.90;;;;;;1974368;73;20168;-77
2022/11/22 07:09:54;;;;;;;;;;;5.40;99.90;;;;;;1974341;73;20102;-76
2022/11/22 07:12:20;;;;;;;;;;;5.40;99.90;;;;;;1974500;73;20207;-77
2022/11/22 07:14:47;;;;;;;;;;;5.40;99.90;;;;;;1974246;73;20219;-77
2022/11/22 07:17:14;;;;;;;;;;;5.40;99.90;;;;;;1974847;73;20117;-76
2022/11/22 07:19:40;;;;;;;;;;;5.40;99.90;;;;;;1974593;73;20162;-76
2022/11/22 07:22:08;;;;;;;;;;;5.30;99.90;;;;;;1974615;73;20413;-75
2022/11/22 07:24:35;;;;;;;;;;;5.40;99.90;;;;;;1974348;73;20298;-76
2022/11/22 07:27:01;;;;;;;;;;;5.50;99.90;;;;;;1974578;73;20099;-76
2022/11/22 07:29:28;;;;;;;;;;;5.50;99.90;;;;;;1974405;73;20196;-76
2022/11/22 07:31:55;;;;;;;;;;;5.60;99.90;;;;;;1974339;73;20135;-77
2022/11/22 07:34:21;;;;;;;;;;;5.60;99.90;;;;;;1974396;73;20110;-74
2022/11/22 07:36:48;;;;;;;;;;;5.60;99.90;;;;;;1974284;73;20124;-75
2022/11/22 07:39:15;;;;;;;;;;;5.60;99.90;;;;;;1974261;73;20118;-76
2022/11/22 07:41:42;;;;;;;;;;;5.60;99.90;;;;;;1974298;73;20318;-74
2022/11/22 07:44:08;;;;;;;;;;;5.80;99.90;;;;;;1974037;73;20145;-76
2022/11/22 07:46:35;;;;;;;;;;;5.80;99.90;;;;;;1974091;73;20341;-75
2022/11/22 07:49:02;;;;;;;;;;;5.90;99.90;;;;;;1973986;73;20114;-75
2022/11/22 07:51:28;;;;;;;;;;;5.90;99.90;;;;;;1974038;73;20137;-75
2022/11/22 07:53:55;;;;;;;;;;;5.90;99.90;;;;;;1974018;73;20156;-76
2022/11/22 07:56:22;;;;;;;;;;;5.90;99.90;;;;;;1974021;73;20111;-75
2022/11/22 07:58:49;;;;;;;;;;;5.90;99.90;;;;;;1973940;73;20152;-75
2022/11/22 08:01:16;;;;;;;;;;;6.00;99.90;;;;;;1973930;73;20110;-76
2022/11/22 08:03:42;;;;;;;;;;;6.20;99.90;;;;;;1973988;73;20206;-76
2022/11/22 08:06:10;;;;;;;;;;;6.10;99.90;;;;;;1974443;73;20103;-76
2022/11/22 08:08:36;;;;;;;;;;;6.20;99.90;;;;;;1974404;73;20110;-76
2022/11/22 08:11:03;;;;;;;;;;;6.10;99.90;;;;;;1973970;73;20118;-76
2022/11/22 08:13:30;;;;;;;;;;;6.30;99.90;;;;;;1973927;73;20125;-75
2022/11/22 08:15:58;;;;;;;;;;;6.30;99.90;;;;;;1974105;73;20388;-75
2022/11/22 08:18:27;;;;;;;;;;;6.20;99.90;;;;;;1973627;73;20118;-75
2022/11/22 08:20:55;;;;;;;;;;;6.40;99.90;;;;;;1973878;73;20147;-76
2022/11/22 08:23:22;;;;;;;;;;;6.40;99.90;;;;;;1972629;73;20168;-76
2022/11/22 08:25:48;;;;;;;;;;;6.40;99.90;;;;;;1974005;73;20103;-76
2022/11/22 08:28:15;;;;;;;;;;;6.50;99.90;;;;;;1973858;73;20136;-74
2022/11/22 08:30:42;;;;;;;;;;;6.50;99.90;;;;;;1974129;73;20103;-76
2022/11/22 08:33:08;;;;;;;;;;;6.70;99.90;;;;;;1973920;73;20164;-76
2022/11/22 08:35:35;;;;;;;;;;;6.80;99.90;;;;;;1973802;73;20107;-76
2022/11/22 08:38:02;;;;;;;;;;;6.80;99.90;;;;;;1973914;73;20107;-76
2022/11/22 08:40:29;;;;;;;;;;;6.60;99.90;;;;;;1974025;73;20099;-75
2022/11/22 08:42:55;;;;;;;;;;;6.60;99.90;;;;;;1973935;73;20103;-75
2022/11/22 08:45:22;;;;;;;;;;;6.80;99.90;;;;;;1973946;73;20102;-75
2022/11/22 08:47:49;;;;;;;;;;;6.90;99.90;;;;;;1973977;73;20099;-76
2022/11/22 08:50:17;;;;;;;;;;;7.00;99.90;;;;;;1974041;73;20317;-76
2022/11/22 08:52:44;;;;;;;;;;;7.20;99.90;;;;;;1973960;73;20166;-76
2022/11/22 08:55:13;;;;;;;;;;;7.00;99.90;;;;;;1974049;73;20111;-76
2022/11/22 08:57:40;;;;;;;;;;;7.00;99.90;;;;;;1973925;73;20110;-76
2022/11/22 09:00:10;;;;;;;;;;;7.00;99.90;;;;;;1974004;73;20156;-75
2022/11/22 09:02:37;;;;;;;;;;;7.00;99.90;;;;;;1973954;73;20099;-75
2022/11/22 09:05:03;;;;;;;;;;;7.10;99.90;;;;;;1974065;73;20359;-75
2022/11/22 09:07:30;;;;;;;;;;;7.20;99.90;;;;;;1973973;73;20103;-75
2022/11/22 09:09:57;;;;;;;;;;;7.50;99.90;;;;;;1974138;73;20110;-75
2022/11/22 09:12:29;;;;;;;;;;;7.40;99.90;;;;;;1974032;73;20131;-75
2022/11/22 09:14:56;;;;;;;;;;;7.60;99.90;;;;;;1974072;73;20110;-76
2022/11/22 09:17:23;;;;;;;;;;;7.60;99.90;;;;;;1973995;73;20204;-75
2022/11/22 09:19:49;;;;;;;;;;;7.70;99.90;;;;;;1974011;73;20126;-76
2022/11/22 09:22:16;;;;;;;;;;;7.60;99.90;;;;;;1974069;73;20110;-76
2022/11/22 09:24:43;;;;;;;;;;;7.60;99.90;;;;;;1974047;73;20122;-75
2022/11/22 09:27:09;;;;;;;;;;;7.60;99.90;;;;;;1973983;73;20208;-75
2022/11/22 09:29:36;;;;;;;;;;;7.60;99.90;;;;;;1974071;73;20145;-76
2022/11/22 09:32:03;;;;;;;;;;;7.60;99.90;;;;;;1974103;73;20106;-77
2022/11/22 09:34:29;;;;;;;;;;;7.70;99.90;;;;;;1973986;73;20110;-76
2022/11/22 09:36:56;;;;;;;;;;;7.70;99.90;;;;;;1973920;73;20140;-75
2022/11/22 09:39:23;;;;;;;;;;;7.70;99.90;;;;;;1974064;73;20118;-76
2022/11/22 09:42:00;;;;;;;;;;;7.80;99.90;;;;;;1974064;73;20110;-75
2022/11/22 09:44:31;;;;;;;;;;;7.90;99.90;;;;;;1973520;73;20114;-75
2022/11/22 09:46:59;;;;;;;;;;;7.80;99.90;;;;;;1974082;73;20158;-75
2022/11/22 09:49:28;;;;;;;;;;;7.80;99.90;;;;;;1973452;73;20322;-75
2022/11/22 09:51:59;;;;;;;;;;;8.00;99.90;;;;;;1972711;73;20140;-75
2022/11/22 09:54:27;;;;;;;;;;;7.90;99.90;;;;;;1974051;73;20110;-76
2022/11/22 09:56:55;;;;;;;;;;;7.90;99.90;;;;;;1972791;73;20326;-75
2022/11/22 09:59:23;;;;;;;;;;;8.00;99.90;;;;;;1973959;73;20122;-76
2022/11/22 10:01:51;;;;;;;;;;;7.90;99.90;;;;;;1973797;73;20148;-76
2022/11/22 10:04:20;;;;;;;;;;;8.00;99.90;;;;;;1974005;73;20186;-76
2022/11/22 10:06:53;;;;;;;;;;;7.90;99.90;;;;;;1973447;73;20110;-76
2022/11/22 10:09:21;;;;;;;;;;;8.00;99.90;;;;;;1973991;73;20095;-76
2022/11/22 10:11:50;;;;;;;;;;;8.10;99.90;;;;;;1972999;73;20220;-76
2022/11/22 10:14:18;;;;;;;;;;;8.20;99.90;;;;;;1971473;73;20338;-77
2022/11/22 10:16:46;;;;;;;;;;;8.10;99.90;;;;;;1973945;73;20140;-76
2022/11/22 10:19:17;;;;;;;;;;;8.20;99.90;;;;;;1974060;73;20118;-76
2022/11/22 10:21:49;;;;;;;;;;;8.20;99.90;;;;;;1974113;73;20106;-76
2022/11/22 10:24:14;;;;;;;;;;;8.20;99.90;;;;;;1973426;73;20153;-75
2022/11/22 10:26:41;;;;;;;;;;;8.20;99.90;;;;;;1974051;73;20114;-76
2022/11/22 10:29:09;;;;;;;;;;;8.30;99.90;;;;;;1974116;73;20176;-75
2022/11/22 10:31:44;;;;;;;;;;;8.40;99.90;;;;;;1973521;73;20345;-76
2022/11/22 10:34:21;;;;;;;;;;;8.50;99.90;;;;;;1974032;73;20159;-76
2022/11/22 10:36:55;;;;;;;;;;;8.50;99.90;;;;;;1973594;73;20189;-75
2022/11/22 10:39:27;;;;;;;;;;;8.50;99.90;;;;;;1968373;73;20310;-76
2022/11/22 10:41:55;;;;;;;;;;;8.50;99.90;;;;;;1973469;73;20106;-76
2022/11/22 10:44:40;;;;;;;;;;;8.40;99.90;;;;;;1972130;73;20114;-76
2022/11/22 10:47:17;;;;;;;;;;;8.40;99.90;;;;;;1974171;73;20316;-76
2022/11/22 10:49:57;;;;;;;;;;;8.40;99.90;;;;;;1971843;73;20148;-76
2022/11/22 10:52:43;;;;;;;;;;;8.40;99.90;;;;;;1974174;73;20321;-76
2022/11/22 10:55:15;;;;;;;;;;;8.50;99.90;;;;;;1974070;73;20336;-76
2022/11/22 10:57:43;;;;;;;;;;;8.50;99.90;;;;;;1947449;73;20103;-76
2022/11/22 11:00:27;;;;;;;;;;;8.50;99.90;;;;;;1973368;73;20118;-76
2022/11/22 11:03:09;;;;;;;;;;;8.60;99.90;;;;;;1973288;73;20374;-76
2022/11/22 11:05:56;;;;;;;;;;;8.70;99.90;;;;;;1974117;73;20310;-77
2022/11/22 11:08:30;;;;;;;;;;;8.80;99.90;;;;;;1973984;73;20118;-77
2022/11/22 11:10:57;;;;;;;;;;;8.80;99.90;;;;;;1974128;73;20146;-76
2022/11/22 11:13:29;;;;;;;;;;;8.60;99.90;;;;;;1974117;73;20194;-77
2022/11/22 11:15:57;;;;;;;;;;;8.60;99.90;;;;;;1974003;73;20110;-77
2022/11/22 11:18:28;;;;;;;;;;;8.60;99.90;;;;;;1973175;73;20397;-76
2022/11/22 11:20:55;;;;;;;;;;;8.70;99.90;;;;;;1973875;73;20114;-76
2022/11/22 11:23:21;;;;;;;;;;;8.70;99.90;;;;;;1974022;73;20137;-76
2022/11/22 11:25:49;;;;;;;;;;;8.80;99.90;;;;;;1974039;73;20188;-75
2022/11/22 11:28:23;;;;;;;;;;;8.70;99.90;;;;;;1974291;73;20376;-78
2022/11/22 11:30:51;;;;;;;;;;;8.80;99.90;;;;;;1974265;73;20099;-77
2022/11/22 11:33:19;;;;;;;;;;;9.00;99.90;;;;;;1974447;73;20161;-76
2022/11/22 11:35:46;;;;;;;;;;;8.90;99.90;;;;;;1974227;73;20095;-76
2022/11/22 11:38:32;;;;;;;;;;;9.00;99.90;;;;;;1974301;73;20133;-75
2022/11/22 11:41:00;;;;;;;;;;;9.00;99.90;;;;;;1974250;73;20157;-76
2022/11/22 11:43:27;;;;;;;;;;;8.80;99.90;;;;;;1971152;73;20137;-76
2022/11/22 11:45:54;;;;;;;;;;;9.20;99.90;;;;;;1974147;73;20102;-75
2022/11/22 11:48:27;;;;;;;;;;;9.30;99.90;;;;;;1974503;73;20114;-74
2022/11/22 11:51:07;;;;;;;;;;;9.30;99.90;;;;;;1974487;73;20106;-74
2022/11/22 11:53:34;;;;;;;;;;;9.30;99.90;;;;;;1974487;73;20350;-74
2022/11/22 11:56:20;;;;;;;;;;;9.50;99.90;;;;;;1974436;73;20098;-74
2022/11/22 11:58:53;;;;;;;;;;;9.50;99.90;;;;;;1941503;74;20151;-74
2022/11/22 12:01:19;;;;;;;;;;;9.50;99.90;;;;;;1941723;74;20155;-74
2022/11/22 12:03:53;;;;;;;;;;;9.60;99.90;;;;;;1954010;73;20348;-75
2022/11/22 12:06:20;;;;;;;;;;;9.60;99.90;;;;;;1973331;73;20118;-77
2022/11/22 12:08:47;;;;;;;;;;;9.30;99.90;;;;;;1974060;73;20160;-76
2022/11/22 12:11:15;;;;;;;;;;;9.30;99.90;;;;;;1974085;73;20136;-77
2022/11/22 12:13:43;;;;;;;;;;;9.30;99.90;;;;;;1974230;73;20169;-76
2022/11/22 12:16:17;;;;;;;;;;;9.30;99.90;;;;;;1974089;73;20110;-75
2022/11/22 12:18:45;;;;;;;;;;;9.30;99.90;;;;;;1973982;73;20380;-74
2022/11/22 12:21:13;;;;;;;;;;;9.40;99.90;;;;;;1974164;73;20136;-73
2022/11/22 12:23:42;;;;;;;;;;;9.30;99.90;;;;;;1973881;73;20148;-73
2022/11/22 12:26:08;;;;;;;;;;;9.50;99.90;;;;;;1973401;73;20238;-75
2022/11/22 12:28:35;;;;;;;;;;;9.60;99.90;;;;;;1974274;73;20114;-75
2022/11/22 12:31:03;;;;;;;;;;;9.70;99.90;;;;;;1947369;73;20126;-74
2022/11/22 12:33:32;;;;;;;;;;;9.70;99.90;;;;;;1974053;73;20094;-75
2022/11/22 12:35:59;;;;;;;;;;;9.70;99.90;;;;;;1973934;73;20138;-75
2022/11/22 12:38:33;;;;;;;;;;;9.80;99.90;;;;;;1973884;73;20095;-74
2022/11/22 12:41:01;;;;;;;;;;;9.90;99.90;;;;;;1973790;73;20144;-74
2022/11/22 12:43:37;;;;;;;;;;;9.80;99.90;;;;;;1974075;73;20110;-74
2022/11/22 12:46:05;;;;;;;;;;;9.80;99.90;;;;;;1974015;73;20102;-72
2022/11/22 12:48:34;;;;;;;;;;;9.80;99.90;;;;;;1973047;73;20326;-74
2022/11/22 12:51:08;;;;;;;;;;;10.00;99.90;;;;;;1974132;73;20140;-74
2022/11/22 12:53:36;;;;;;;;;;;9.90;99.90;;;;;;1947058;73;20345;-74
2022/11/22 12:56:21;;;;;;;;;;;9.90;99.90;;;;;;1973850;73;20363;-73
2022/11/22 12:59:06;;;;;;;;;;;9.90;99.90;;;;;;1973978;73;20138;-75
2022/11/22 13:01:40;;;;;;;;;;;9.70;99.90;;;;;;1973986;73;20086;-74
2022/11/22 13:04:11;;;;;;;;;;;9.70;99.90;;;;;;1973912;73;20122;-74
2022/11/22 13:06:42;;;;;;;;;;;9.90;99.90;;;;;;1974358;73;20306;-73
2022/11/22 13:09:11;;;;;;;;;;;10.00;99.90;;;;;;1974437;73;20175;-74
2022/11/22 13:11:39;;;;;;;;;;;10.00;99.90;;;;;;1973407;73;20106;-73
2022/11/22 13:14:07;;;;;;;;;;;10.00;99.90;;;;;;1974132;73;20144;-73
2022/11/22 13:16:33;;;;;;;;;;;10.20;99.90;;;;;;1974407;73;20156;-74
2022/11/22 13:19:01;;;;;;;;;;;10.30;99.90;;;;;;1974090;73;20130;-74
2022/11/22 13:21:44;;;;;;;;;;;10.50;99.90;;;;;;1974111;73;20403;-74
2022/11/22 13:24:15;;;;;;;;;;;10.20;99.90;;;;;;1974020;73;20157;-75
2022/11/22 13:27:00;;;;;;;;;;;10.10;99.90;;;;;;1974212;73;20374;-75
2022/11/22 13:29:27;;;;;;;;;;;10.20;99.90;;;;;;1974080;73;20188;-75
2022/11/22 13:32:02;;;;;;;;;;;10.20;99.90;;;;;;1974018;73;20109;-77
2022/11/22 13:34:28;;;;;;;;;;;10.00;99.90;;;;;;1973909;73;20177;-74
2022/11/22 13:36:57;;;;;;;;;;;9.90;99.90;;;;;;1973986;73;20202;-75
2022/11/22 13:39:24;;;;;;;;;;;9.80;99.90;;;;;;1973550;73;20118;-73
2022/11/22 13:41:52;;;;;;;;;;;9.70;99.90;;;;;;1973915;73;20118;-74
2022/11/22 13:44:24;;;;;;;;;;;9.70;99.90;;;;;;1973822;73;20215;-76
2022/11/22 13:46:52;;;;;;;;;;;9.70;99.90;;;;;;1973858;73;20114;-76
2022/11/22 13:49:32;;;;;;;;;;;9.80;99.90;;;;;;1973808;73;20203;-76
2022/11/22 13:51:59;;;;;;;;;;;9.80;99.90;;;;;;1973855;73;20150;-78
2022/11/22 13:54:33;;;;;;;;;;;9.70;99.90;;;;;;1974178;73;20368;-75
2022/11/22 13:57:00;;;;;;;;;;;9.70;99.90;;;;;;1973789;73;20385;-75
2022/11/22 13:59:27;;;;;;;;;;;9.80;99.90;;;;;;1973851;73;20329;-77
2022/11/22 14:01:54;;;;;;;;;;;9.90;99.90;;;;;;1973825;73;20110;-76
2022/11/22 14:04:26;;;;;;;;;;;9.90;99.90;;;;;;1973886;73;20131;-74
2022/11/22 14:07:06;;;;;;;;;;;9.70;99.90;;;;;;1973992;73;20102;-77
2022/11/22 14:09:39;;;;;;;;;;;9.70;99.90;;;;;;1973884;73;20118;-77
2022/11/22 14:12:26;;;;;;;;;;;9.60;99.90;;;;;;1973825;73;20140;-76
2022/11/22 14:15:13;;;;;;;;;;;9.70;99.90;;;;;;1973928;73;20298;-77
2022/11/22 14:17:44;;;;;;;;;;;9.70;99.90;;;;;;1973339;73;20239;-77
2022/11/22 14:20:21;;;;;;;;;;;9.70;99.90;;;;;;1972692;73;20152;-76
2022/11/22 14:23:06;;;;;;;;;;;9.50;99.90;;;;;;1973892;73;20109;-76
2022/11/22 14:25:49;;;;;;;;;;;9.30;99.90;;;;;;1973863;73;20185;-76
2022/11/22 14:28:36;;;;;;;;;;;9.30;99.90;;;;;;1973119;73;20144;-75
2022/11/22 14:31:04;;;;;;;;;;;9.40;99.90;;;;;;1973143;73;20351;-76
2022/11/22 14:33:31;;;;;;;;;;;9.30;99.90;;;;;;1972284;73;20106;-76
2022/11/22 14:36:11;;;;;;;;;;;9.30;99.90;;;;;;1973825;73;20326;-76
2022/11/22 14:38:41;;;;;;;;;;;9.20;99.90;;;;;;1973875;73;20350;-74
2022/11/22 14:41:26;;;;;;;;;;;9.20;99.90;;;;;;1973831;73;20180;-76
2022/11/22 14:43:53;;;;;;;;;;;9.20;99.90;;;;;;1973955;73;20099;-76
2022/11/22 14:46:21;;;;;;;;;;;9.30;99.90;;;;;;1973700;73;20111;-76
2022/11/22 14:48:52;;;;;;;;;;;9.20;99.90;;;;;;1973856;73;20114;-76
2022/11/22 14:51:24;;;;;;;;;;;9.10;99.90;;;;;;1973869;73;20153;-75
2022/11/22 14:53:52;;;;;;;;;;;9.10;99.90;;;;;;1973901;73;20110;-76